Time;durP1;ratioP1;P1;durP2;ratioP2;P2;SDS_P1;SDS_P2;PMS_P1;PMS_P2;Temp;Humidity;BMP_temperature;BMP_pressure;BME280_temperature;BME280_humidity;BME280_pressure;Samples;Min_cycle;Max_cycle;Signal;HPM_P1;HPM_P2
2023/05/07 00:02:03;;;;;;;6.90;6.20;;;14.90;1.00;;;;;;4948466;28;20285;-65
2023/05/07 00:04:36;;;;;;;8.50;5.87;;;14.90;1.00;;;;;;4949039;29;20191;-65
2023/05/07 00:07:03;;;;;;;6.83;6.10;;;14.90;1.00;;;;;;4947189;29;20199;-65
2023/05/07 00:09:30;;;;;;;6.90;6.13;;;14.80;1.00;;;;;;4944959;29;20554;-65
2023/05/07 00:11:57;;;;;;;7.50;6.40;;;14.80;1.00;;;;;;4941689;29;20203;-66
2023/05/07 00:14:24;;;;;;;7.13;6.33;;;14.90;1.00;;;;;;4929540;29;20233;-66
2023/05/07 00:16:51;;;;;;;6.90;5.70;;;14.80;1.00;;;;;;4932531;29;20298;-69
2023/05/07 00:19:19;;;;;;;10.00;6.40;;;14.70;1.00;;;;;;4929812;28;20204;-67
2023/05/07 00:21:46;;;;;;;6.63;6.03;;;14.70;1.00;;;;;;4937043;28;20199;-66
2023/05/07 00:24:13;;;;;;;8.27;5.80;;;14.80;1.00;;;;;;4947557;29;20218;-67
2023/05/07 00:26:40;;;;;;;7.83;6.20;;;14.70;1.00;;;;;;4941298;29;20286;-66
2023/05/07 00:29:07;;;;;;;6.67;6.00;;;14.70;1.00;;;;;;4915035;29;20610;-66
2023/05/07 00:31:35;;;;;;;7.67;6.13;;;14.80;1.00;;;;;;4930615;28;20243;-68
2023/05/07 00:34:02;;;;;;;5.77;5.20;;;14.80;1.00;;;;;;4914666;29;20217;-66
2023/05/07 00:36:30;;;;;;;7.13;6.43;;;14.80;1.00;;;;;;4945004;29;20231;-66
2023/05/07 00:38:59;;;;;;;8.33;6.17;;;14.70;1.00;;;;;;4931084;29;20287;-64
2023/05/07 00:41:26;;;;;;;7.97;6.60;;;14.60;1.00;;;;;;4924218;29;20250;-64
2023/05/07 00:43:53;;;;;;;6.80;6.10;;;14.60;1.00;;;;;;4929171;29;20207;-65
2023/05/07 00:46:21;;;;;;;8.10;7.30;;;14.60;1.00;;;;;;4917782;29;20203;-64
2023/05/07 00:48:52;;;;;;;7.67;6.97;;;14.60;1.00;;;;;;4951025;29;20202;-66
2023/05/07 00:51:20;;;;;;;9.80;7.67;;;14.70;1.00;;;;;;4941223;29;20235;-66
2023/05/07 00:53:47;;;;;;;11.73;8.80;;;14.60;1.00;;;;;;4933451;28;20672;-66
2023/05/07 00:56:15;;;;;;;11.40;7.70;;;14.70;1.00;;;;;;4938236;28;20203;-65
2023/05/07 00:58:42;;;;;;;10.37;8.83;;;14.80;1.00;;;;;;4940037;29;20306;-66
2023/05/07 01:01:09;;;;;;;15.43;10.52;;;14.90;1.00;;;;;;4948601;29;20918;-64
2023/05/07 01:03:36;;;;;;;7.90;6.60;;;14.90;1.00;;;;;;4954396;23;20252;-87
2023/05/07 01:06:06;;;;;;;8.63;7.03;;;15.00;1.00;;;;;;4960028;28;20193;-84
2023/05/07 01:08:35;;;;;;;8.73;6.07;;;14.90;1.00;;;;;;4954297;28;20206;-83
2023/05/07 01:11:03;;;;;;;7.13;6.43;;;15.00;1.00;;;;;;4945898;28;20218;-81
2023/05/07 01:13:31;;;;;;;7.40;6.70;;;15.00;1.00;;;;;;4953070;28;20202;-78
2023/05/07 01:15:58;;;;;;;6.55;5.93;;;15.10;1.00;;;;;;4970226;28;20192;-79
2023/05/07 01:18:26;;;;;;;6.15;5.55;;;15.00;1.00;;;;;;4952756;28;20308;-81
2023/05/07 01:20:59;;;;;;;5.97;5.28;;;14.80;1.00;;;;;;4968746;28;20915;-81
2023/05/07 01:23:27;;;;;;;6.22;5.63;;;14.80;1.00;;;;;;4940864;28;20206;-80
2023/05/07 01:25:55;;;;;;;6.10;5.50;;;14.80;1.00;;;;;;4964327;28;20202;-81
2023/05/07 01:28:24;;;;;;;8.70;7.03;;;14.60;1.00;;;;;;4956112;28;20257;-81
2023/05/07 01:31:01;;;;;;;8.63;6.60;;;14.60;1.00;;;;;;4971809;28;20241;-82
2023/05/07 01:33:31;;;;;;;10.57;6.90;;;14.50;1.00;;;;;;4955141;28;20206;-81
2023/05/07 01:36:02;;;;;;;8.00;6.60;;;14.50;1.00;;;;;;4952995;28;20233;-82
2023/05/07 01:38:29;;;;;;;8.87;6.23;;;14.40;1.00;;;;;;4946321;28;20631;-82
2023/05/07 01:40:57;;;;;;;9.23;6.97;;;14.30;1.00;;;;;;4965538;28;20226;-85
2023/05/07 01:43:25;;;;;;;9.87;6.87;;;14.30;1.00;;;;;;4952323;28;20223;-82
2023/05/07 01:45:53;;;;;;;7.90;6.83;;;14.20;1.00;;;;;;4952912;28;20751;-82
2023/05/07 01:48:21;;;;;;;7.60;6.70;;;14.20;1.00;;;;;;4954476;28;20353;-80
2023/05/07 01:50:49;;;;;;;7.63;6.83;;;14.20;1.00;;;;;;4936536;29;20213;-81
2023/05/07 01:53:16;;;;;;;7.93;6.73;;;14.20;1.00;;;;;;4967524;28;20198;-84
2023/05/07 01:55:43;;;;;;;8.07;6.20;;;14.20;1.00;;;;;;4970215;28;20695;-82
2023/05/07 01:58:10;;;;;;;10.27;7.40;;;14.30;1.00;;;;;;4967177;28;20227;-80
2023/05/07 02:00:37;;;;;;;7.13;6.50;;;14.30;1.00;;;;;;4949981;28;20199;-83
2023/05/07 02:03:05;;;;;;;7.77;7.03;;;14.40;1.00;;;;;;4951626;28;20225;-80
2023/05/07 02:05:40;;;;;;;8.30;7.33;;;14.30;1.00;;;;;;4925540;29;20222;-80
2023/05/07 02:08:15;;;;;;;9.77;7.00;;;14.30;1.00;;;;;;4926456;29;20749;-79
2023/05/07 02:10:42;;;;;;;8.47;6.83;;;14.20;1.00;;;;;;4922932;29;20207;-79
2023/05/07 02:13:09;;;;;;;8.47;7.67;;;14.20;1.00;;;;;;4911705;29;20614;-80
2023/05/07 02:15:36;;;;;;;8.83;7.40;;;14.10;1.00;;;;;;4932182;29;20207;-82
2023/05/07 02:18:06;;;;;;;7.63;6.93;;;14.10;1.00;;;;;;4939988;29;20218;-82
2023/05/07 02:20:33;;;;;;;8.33;7.53;;;14.10;1.00;;;;;;4941485;29;20663;-79
2023/05/07 02:23:00;;;;;;;10.13;8.20;;;14.20;1.00;;;;;;4948015;28;20814;-79
2023/05/07 02:25:29;;;;;;;8.43;7.33;;;14.20;1.00;;;;;;4932827;28;20690;-84
2023/05/07 02:27:57;;;;;;;11.50;7.23;;;14.20;1.00;;;;;;4945564;29;20207;-85
2023/05/07 02:30:37;;;;;;;9.03;6.83;;;14.20;1.00;;;;;;4915870;29;20207;-83
2023/05/07 02:33:05;;;;;;;8.20;7.40;;;14.10;1.00;;;;;;4919653;29;20591;-86
2023/05/07 02:35:33;;;;;;;8.83;7.93;;;14.10;1.00;;;;;;4935104;29;20213;-83
2023/05/07 02:38:02;;;;;;;8.67;7.73;;;14.10;1.00;;;;;;4921310;29;20218;-83
2023/05/07 02:40:29;;;;;;;8.30;7.43;;;14.00;1.00;;;;;;4932867;29;20225;-82
2023/05/07 02:42:56;;;;;;;8.70;7.83;;;14.00;1.00;;;;;;4938598;29;20224;-84
2023/05/07 02:45:24;;;;;;;8.90;8.00;;;14.00;1.00;;;;;;4934110;29;20207;-83
2023/05/07 02:47:53;;;;;;;9.00;8.07;;;13.90;1.00;;;;;;4930522;29;20571;-85
2023/05/07 02:50:20;;;;;;;9.40;7.80;;;13.90;1.00;;;;;;4913500;29;20337;-80
2023/05/07 02:52:48;;;;;;;9.53;8.07;;;13.80;1.00;;;;;;4927219;29;20210;-83
2023/05/07 02:55:15;;;;;;;9.20;8.40;;;13.90;1.00;;;;;;4926579;29;20194;-79
2023/05/07 02:57:42;;;;;;;8.33;7.53;;;13.90;1.00;;;;;;4925304;29;20223;-81
2023/05/07 03:00:14;;;;;;;8.90;7.97;;;13.90;1.00;;;;;;4932976;29;20257;-82
2023/05/07 03:02:48;;;;;;;10.97;8.90;;;13.80;1.00;;;;;;4936178;29;20206;-79
2023/05/07 03:05:15;;;;;;;9.70;8.80;;;13.80;1.00;;;;;;4930158;29;20255;-78
2023/05/07 03:07:45;;;;;;;11.20;8.60;;;13.80;1.00;;;;;;4929929;29;20301;-80
2023/05/07 03:10:13;;;;;;;9.07;8.17;;;13.80;1.00;;;;;;4911088;29;20207;-80
2023/05/07 03:12:40;;;;;;;10.13;9.10;;;13.80;1.00;;;;;;4927139;29;20636;-78
2023/05/07 03:15:10;;;;;;;10.27;9.27;;;13.80;1.00;;;;;;4942734;29;20215;-79
2023/05/07 03:17:37;;;;;;;9.90;8.90;;;13.80;1.00;;;;;;4927067;29;20239;-79
2023/05/07 03:20:07;;;;;;;10.50;9.30;;;13.70;1.00;;;;;;4935705;29;20199;-84
2023/05/07 03:22:35;;;;;;;10.53;9.10;;;13.70;1.00;;;;;;4919836;29;20769;-85
2023/05/07 03:25:02;;;;;;;12.73;9.67;;;13.70;1.00;;;;;;4923011;28;20670;-84
2023/05/07 03:27:29;;;;;;;11.43;10.13;;;13.60;1.00;;;;;;4932600;28;20209;-84
2023/05/07 03:29:56;;;;;;;12.43;9.83;;;13.60;1.00;;;;;;4928839;29;20202;-86
2023/05/07 03:32:24;;;;;;;11.47;10.37;;;13.60;1.00;;;;;;4950756;28;20198;-85
2023/05/07 03:34:52;;;;;;;11.93;10.67;;;13.60;1.00;;;;;;4952140;28;20203;-86
2023/05/07 03:37:21;;;;;;;11.43;10.33;;;13.70;1.00;;;;;;4943363;28;20289;-86
2023/05/07 03:39:49;;;;;;;12.23;9.60;;;13.70;1.00;;;;;;4934812;29;20186;-86
2023/05/07 03:42:17;;;;;;;11.90;10.40;;;13.70;1.00;;;;;;4923870;28;20649;-83
2023/05/07 03:44:44;;;;;;;12.10;10.83;;;13.70;1.00;;;;;;4931188;29;20277;-85
2023/05/07 03:47:13;;;;;;;13.33;10.87;;;13.70;1.00;;;;;;4933289;28;20199;-88
2023/05/07 03:49:40;;;;;;;14.63;11.27;;;13.70;1.00;;;;;;4934629;29;20218;-86
2023/05/07 03:52:07;;;;;;;16.23;11.57;;;13.70;1.00;;;;;;4926479;28;20617;-83
2023/05/07 03:54:35;;;;;;;13.23;11.90;;;13.70;1.00;;;;;;4939101;29;20271;-82
2023/05/07 03:57:03;;;;;;;15.07;12.30;;;13.70;1.00;;;;;;4952170;28;20205;-85
2023/05/07 03:59:30;;;;;;;13.47;12.07;;;13.70;1.00;;;;;;4946808;28;20239;-81
2023/05/07 04:01:58;;;;;;;14.73;13.17;;;13.70;1.00;;;;;;4930997;28;20195;-81
2023/05/07 04:04:32;;;;;;;22.50;13.90;;;13.70;1.00;;;;;;4935641;28;20263;-82
2023/05/07 04:07:00;;;;;;;15.00;13.50;;;13.70;1.00;;;;;;4932400;29;20199;-81
2023/05/07 04:09:29;;;;;;;16.30;13.60;;;13.70;1.00;;;;;;4917030;29;20214;-79
2023/05/07 04:11:56;;;;;;;16.73;14.20;;;13.70;1.00;;;;;;4930365;29;20207;-81
2023/05/07 04:14:23;;;;;;;15.73;13.30;;;13.70;1.00;;;;;;4912146;29;20204;-82
2023/05/07 04:16:52;;;;;;;17.67;14.83;;;13.70;1.00;;;;;;4929240;29;20214;-82
2023/05/07 04:19:19;;;;;;;20.10;15.87;;;13.80;1.00;;;;;;4914230;29;20216;-83
2023/05/07 04:21:49;;;;;;;18.20;15.67;;;13.70;1.00;;;;;;4931497;29;20199;-83
2023/05/07 04:24:17;;;;;;;17.60;15.80;;;13.70;1.00;;;;;;4930269;29;20964;-83
2023/05/07 04:26:45;;;;;;;13.80;12.40;;;14.00;1.00;;;;;;4921615;29;20199;-87
2023/05/07 04:29:12;;;;;;;12.77;10.03;;;14.30;1.00;;;;;;4934485;29;20253;-85
2023/05/07 04:31:40;;;;;;;16.23;13.87;;;14.60;1.00;;;;;;4934171;29;20200;-85
2023/05/07 04:34:08;;;;;;;15.90;14.30;;;14.70;1.00;;;;;;4935640;29;20234;-88
2023/05/07 04:36:36;;;;;;;16.37;14.47;;;14.80;1.00;;;;;;4938387;29;20262;-85
2023/05/07 04:39:10;;;;;;;13.33;11.20;;;14.80;1.00;;;;;;4918467;29;20248;-88
2023/05/07 04:41:39;;;;;;;15.95;14.25;;;14.60;1.00;;;;;;4910451;29;20731;-86
2023/05/07 04:44:09;;;;;;;15.57;13.83;;;14.80;1.00;;;;;;4903343;29;20200;-88
2023/05/07 04:46:36;;;;;;;17.63;13.90;;;14.80;1.00;;;;;;4922129;29;20681;-86
2023/05/07 04:49:03;;;;;;;14.20;12.90;;;14.80;1.00;;;;;;4928212;29;20208;-86
2023/05/07 04:51:32;;;;;;;16.20;14.47;;;14.90;1.00;;;;;;4912498;29;20203;-87
2023/05/07 04:53:59;;;;;;;20.53;16.80;;;14.70;1.00;;;;;;4902731;29;20208;-84
2023/05/07 04:56:32;;;;;;;19.47;17.33;;;14.70;1.00;;;;;;4922629;29;20198;-84
2023/05/07 04:59:00;;;;;;;23.77;17.80;;;14.40;1.00;;;;;;4934203;29;20216;-84
2023/05/07 05:01:28;;;;;;;18.97;17.03;;;14.40;1.00;;;;;;4926070;29;20200;-85
2023/05/07 05:03:56;;;;;;;19.97;17.93;;;14.60;1.00;;;;;;4926859;29;20247;-84
2023/05/07 05:06:23;;;;;;;21.00;17.10;;;14.80;1.00;;;;;;4930594;29;20692;-85
2023/05/07 05:08:51;;;;;;;18.93;16.90;;;14.90;1.00;;;;;;4934029;29;20207;-86
2023/05/07 05:11:18;;;;;;;22.90;17.17;;;14.80;1.00;;;;;;4920992;29;20208;-86
2023/05/07 05:13:48;;;;;;;19.87;17.73;;;14.70;1.00;;;;;;4903741;29;20204;-85
2023/05/07 05:16:19;;;;;;;18.70;16.73;;;14.80;1.00;;;;;;4920062;29;20663;-85
2023/05/07 05:18:47;;;;;;;24.13;17.87;;;14.90;1.00;;;;;;4926730;29;20230;-88
2023/05/07 05:21:17;;;;;;;21.63;16.92;;;14.90;1.00;;;;;;4934842;29;20223;-86
2023/05/07 05:23:47;;;;;;;20.53;17.57;;;14.90;1.00;;;;;;4919477;29;20258;-86
2023/05/07 05:26:18;;;;;;;18.90;16.50;;;14.90;1.00;;;;;;4934311;29;20794;-87
2023/05/07 05:28:45;;;;;;;19.23;15.57;;;15.10;1.00;;;;;;4922435;29;20682;-86
2023/05/07 05:31:14;;;;;;;18.33;16.42;;;15.40;1.00;;;;;;4910439;29;20840;-82
2023/05/07 05:33:41;;;;;;;16.33;14.57;;;15.60;1.00;;;;;;4938526;29;20203;-82
2023/05/07 05:36:13;;;;;;;20.05;15.90;;;15.70;1.00;;;;;;4935335;28;20287;-81
2023/05/07 05:38:40;;;;;;;17.83;16.02;;;15.80;1.00;;;;;;4912381;29;20303;-83
2023/05/07 05:41:09;;;;;;;18.92;16.90;;;15.80;1.00;;;;;;4900315;29;20654;-84
2023/05/07 05:43:36;;;;;;;18.33;15.55;;;15.80;1.00;;;;;;4932115;29;20753;-81
2023/05/07 05:46:04;;;;;;;19.38;17.38;;;15.80;1.00;;;;;;4933291;29;20214;-80
2023/05/07 05:48:32;;;;;;;16.10;14.60;;;15.70;1.00;;;;;;4918410;29;20256;-86
2023/05/07 05:51:01;;;;;;;20.80;17.83;;;15.60;1.00;;;;;;4939236;29;20679;-85
2023/05/07 05:53:28;;;;;;;17.63;15.77;;;15.60;1.00;;;;;;4927354;29;20210;-85
2023/05/07 05:55:55;;;;;;;17.33;15.50;;;15.80;1.00;;;;;;4919644;29;20211;-84
2023/05/07 05:58:23;;;;;;;21.52;17.15;;;15.90;1.00;;;;;;4941100;29;20668;-84
2023/05/07 06:00:56;;;;;;;22.63;17.58;;;15.80;1.00;;;;;;4908667;29;20575;-84
2023/05/07 06:03:25;;;;;;;20.75;18.58;;;15.90;1.00;;;;;;4941967;29;20245;-86
2023/05/07 06:05:54;;;;;;;18.75;16.65;;;16.20;1.00;;;;;;4915901;29;20299;-86
2023/05/07 06:08:22;;;;;;;17.85;16.02;;;17.00;1.00;;;;;;4928619;29;20559;-84
2023/05/07 06:10:49;;;;;;;20.08;16.88;;;17.20;1.00;;;;;;4911432;29;20822;-83
2023/05/07 06:13:16;;;;;;;18.35;16.27;;;17.30;1.00;;;;;;4926179;29;20204;-88
2023/05/07 06:15:43;;;;;;;18.00;15.90;;;17.30;1.00;;;;;;4929558;29;20624;-84
2023/05/07 06:18:13;;;;;;;16.85;15.15;;;17.50;1.00;;;;;;4958372;28;20215;-83
2023/05/07 06:20:40;;;;;;;18.98;16.70;;;17.30;1.00;;;;;;4926400;29;20205;-85
2023/05/07 06:23:14;;;;;;;20.27;16.85;;;16.70;1.00;;;;;;4910628;29;20237;-85
2023/05/07 06:25:49;;;;;;;19.95;17.80;;;16.60;1.00;;;;;;4934009;29;20240;-86
2023/05/07 06:28:18;;;;;;;20.30;17.73;;;16.40;1.00;;;;;;4917364;29;20203;-88
2023/05/07 06:30:46;;;;;;;25.08;19.27;;;16.20;1.00;;;;;;4928287;29;20261;-85
2023/05/07 06:33:16;;;;;;;21.23;17.38;;;16.00;1.00;;;;;;4919117;29;20200;-86
2023/05/07 06:35:43;;;;;;;24.92;19.60;;;16.00;1.00;;;;;;4933006;29;20668;-87
2023/05/07 06:38:12;;;;;;;21.45;19.30;;;15.90;1.00;;;;;;4931734;29;20202;-87
2023/05/07 06:40:40;;;;;;;23.90;19.25;;;16.00;1.00;;;;;;4931978;29;20207;-82
2023/05/07 06:43:07;;;;;;;22.02;18.65;;;16.00;1.00;;;;;;4930897;29;20204;-87
2023/05/07 06:45:55;;;;;;;19.92;17.08;;;16.10;1.00;;;;;;4939541;29;20579;-87
2023/05/07 06:48:22;;;;;;;19.55;17.58;;;16.20;1.00;;;;;;4938058;29;20192;-89
2023/05/07 06:50:57;;;;;;;24.80;18.90;;;16.40;1.00;;;;;;4939887;29;20269;-88
2023/05/07 06:53:25;;;;;;;20.88;18.15;;;16.30;1.00;;;;;;4936674;28;20246;-86
2023/05/07 06:55:54;;;;;;;20.00;16.30;;;16.70;1.00;;;;;;4924832;29;20219;-86
2023/05/07 06:58:22;;;;;;;19.48;17.30;;;17.10;1.00;;;;;;4920569;29;20760;-86
2023/05/07 07:00:49;;;;;;;18.02;15.45;;;17.20;1.00;;;;;;4933796;29;20211;-88
2023/05/07 07:03:16;;;;;;;19.35;17.27;;;17.20;1.00;;;;;;4930997;29;20235;-89
2023/05/07 07:05:45;;;;;;;21.50;17.17;;;17.30;1.00;;;;;;4913850;29;20567;-87
2023/05/07 07:08:12;;;;;;;21.20;17.88;;;16.90;1.00;;;;;;4909836;29;20204;-89
2023/05/07 07:10:39;;;;;;;23.98;17.55;;;16.60;1.00;;;;;;4915088;29;20214;-86
2023/05/07 07:13:07;;;;;;;18.30;16.30;;;16.80;1.00;;;;;;4916326;29;20287;-88
2023/05/07 07:15:34;;;;;;;19.77;17.75;;;17.00;1.00;;;;;;4925313;29;20853;-88
2023/05/07 07:18:01;;;;;;;23.48;17.75;;;16.90;1.00;;;;;;4932786;29;20226;-87
2023/05/07 07:20:28;;;;;;;19.20;17.08;;;17.00;1.00;;;;;;4922927;29;20602;-88
2023/05/07 07:22:55;;;;;;;19.58;17.48;;;17.00;1.00;;;;;;4918010;29;20203;-85
2023/05/07 07:25:23;;;;;;;21.20;17.35;;;17.00;1.00;;;;;;4929113;29;20223;-87
2023/05/07 07:27:50;;;;;;;18.13;16.23;;;17.20;1.00;;;;;;4922755;29;20204;-86
2023/05/07 07:30:18;;;;;;;20.08;16.90;;;17.30;1.00;;;;;;4934366;29;20192;-87
2023/05/07 07:32:48;;;;;;;20.17;17.48;;;17.50;1.00;;;;;;4914228;29;20759;-87
2023/05/07 07:35:15;;;;;;;19.88;17.73;;;17.50;1.00;;;;;;4928758;29;20211;-86
2023/05/07 07:37:44;;;;;;;18.95;16.98;;;17.60;1.00;;;;;;4904032;29;20204;-86
2023/05/07 07:40:13;;;;;;;21.27;18.55;;;17.60;1.00;;;;;;4928453;29;20774;-87
2023/05/07 07:42:40;;;;;;;19.17;17.25;;;17.40;1.00;;;;;;4911373;29;20657;-84
2023/05/07 07:45:08;;;;;;;20.70;16.95;;;17.50;1.00;;;;;;4906034;29;20203;-87
2023/05/07 07:47:40;;;;;;;19.17;17.13;;;17.70;1.00;;;;;;4920554;29;20322;-87
2023/05/07 07:50:08;;;;;;;19.33;17.25;;;17.90;1.00;;;;;;4941932;28;20203;-87
2023/05/07 07:52:36;;;;;;;19.75;17.65;;;17.90;1.00;;;;;;4919216;29;20198;-85
2023/05/07 07:55:04;;;;;;;20.30;18.10;;;17.80;1.00;;;;;;4931658;29;20222;-88
2023/05/07 07:57:32;;;;;;;19.30;16.65;;;17.70;1.00;;;;;;4939720;28;20203;-85
2023/05/07 08:00:00;;;;;;;19.70;17.35;;;17.90;1.00;;;;;;4931509;28;21795;-84
2023/05/07 08:02:31;;;;;;;20.65;18.50;;;17.90;1.00;;;;;;4931408;29;20187;-85
2023/05/07 08:04:58;;;;;;;23.33;17.98;;;18.40;1.00;;;;;;4916851;29;20235;-86
2023/05/07 08:07:25;;;;;;;20.77;17.67;;;18.70;1.00;;;;;;4934465;29;20194;-85
2023/05/07 08:09:52;;;;;;;18.60;16.60;;;19.50;1.00;;;;;;4906876;29;20199;-84
2023/05/07 08:12:22;;;;;;;19.98;17.38;;;19.50;1.00;;;;;;4926104;29;20199;-84
2023/05/07 08:14:49;;;;;;;21.48;18.08;;;18.90;1.00;;;;;;4927156;29;20211;-85
2023/05/07 08:17:17;;;;;;;19.00;17.00;;;19.20;1.00;;;;;;4936021;29;20213;-84
2023/05/07 08:19:45;;;;;;;18.92;16.50;;;19.90;1.00;;;;;;4924855;29;20730;-85
2023/05/07 08:22:14;;;;;;;18.20;16.27;;;19.60;1.00;;;;;;4921546;29;20215;-81
2023/05/07 08:24:41;;;;;;;18.65;16.65;;;19.30;1.00;;;;;;4918961;29;20196;-83
2023/05/07 08:27:09;;;;;;;19.77;16.13;;;19.70;1.00;;;;;;4913046;29;20207;-84
2023/05/07 08:29:37;;;;;;;18.63;16.63;;;20.30;1.00;;;;;;4913676;29;20201;-85
2023/05/07 08:32:04;;;;;;;20.00;16.23;;;20.40;1.00;;;;;;4911428;29;20405;-83
2023/05/07 08:34:31;;;;;;;18.88;16.83;;;21.00;1.00;;;;;;4921248;29;20227;-85
2023/05/07 08:37:01;;;;;;;19.27;15.88;;;21.40;1.00;;;;;;4919186;29;20722;-84
2023/05/07 08:39:31;;;;;;;18.52;16.42;;;22.30;1.00;;;;;;4912447;29;20212;-85
2023/05/07 08:42:02;;;;;;;18.33;16.27;;;22.70;1.00;;;;;;4930034;29;20239;-84
2023/05/07 08:44:33;;;;;;;20.48;16.73;;;22.20;1.00;;;;;;4931484;29;20203;-84
2023/05/07 08:47:06;;;;;;;16.80;15.10;;;23.20;1.00;;;;;;4932435;29;20617;-82
2023/05/07 08:49:34;;;;;;;17.63;15.80;;;24.00;1.00;;;;;;4936992;29;20684;-84
2023/05/07 08:52:02;;;;;;;17.63;15.85;;;24.70;1.00;;;;;;4921997;29;20216;-84
2023/05/07 08:54:30;;;;;;;18.52;16.48;;;24.00;1.00;;;;;;4925573;29;20640;-81
2023/05/07 08:56:57;;;;;;;15.95;14.45;;;24.60;1.00;;;;;;4913261;29;20204;-82
2023/05/07 08:59:26;;;;;;;15.15;13.68;;;25.90;1.00;;;;;;4931726;29;20219;-82
2023/05/07 09:01:53;;;;;;;15.82;14.23;;;26.60;1.00;;;;;;4920740;29;20672;-82
2023/05/07 09:04:20;;;;;;;16.27;13.95;;;25.90;1.00;;;;;;4929662;29;20338;-81
2023/05/07 09:06:48;;;;;;;15.52;13.88;;;25.40;1.00;;;;;;4926295;29;20196;-81
2023/05/07 09:09:18;;;;;;;16.45;14.75;;;24.20;1.00;;;;;;4924535;29;20206;-83
2023/05/07 09:11:46;;;;;;;16.80;14.75;;;22.70;1.00;;;;;;4944203;29;20228;-82
2023/05/07 09:14:24;;;;;;;14.77;13.27;;;23.40;1.00;;;;;;4934935;29;20244;-83
2023/05/07 09:16:57;;;;;;;16.73;14.95;;;24.80;1.00;;;;;;4920153;29;20260;-85
2023/05/07 09:19:25;;;;;;;18.05;15.13;;;24.00;1.00;;;;;;4921918;29;20825;-84
2023/05/07 09:22:04;;;;;;;16.70;14.35;;;24.00;1.00;;;;;;4943981;29;20937;-83
2023/05/07 09:24:50;;;;;;;14.57;13.07;;;26.20;1.00;;;;;;4915570;29;20346;-81
2023/05/07 09:27:21;;;;;;;16.67;14.98;;;25.80;1.00;;;;;;4915547;29;20208;-81
2023/05/07 09:29:49;;;;;;;15.07;13.57;;;26.00;1.00;;;;;;4924752;29;20678;-81
2023/05/07 09:32:16;;;;;;;17.75;14.48;;;26.50;1.00;;;;;;4942419;29;20209;-81
2023/05/07 09:34:44;;;;;;;15.68;14.07;;;25.50;1.00;;;;;;4929960;29;20196;-81
2023/05/07 09:37:14;;;;;;;14.23;12.82;;;25.10;1.00;;;;;;4918306;29;20190;-79
2023/05/07 09:39:45;;;;;;;14.82;13.20;;;25.00;1.00;;;;;;4927893;29;20212;-83
2023/05/07 09:42:17;;;;;;;14.75;13.25;;;23.90;1.00;;;;;;4923759;29;20342;-82
2023/05/07 09:44:44;;;;;;;17.10;15.30;;;23.90;1.00;;;;;;4928203;29;20259;-81
2023/05/07 09:47:21;;;;;;;15.55;13.40;;;24.50;1.00;;;;;;4937016;29;20253;-82
2023/05/07 09:49:56;;;;;;;18.38;14.45;;;24.50;1.00;;;;;;4926234;29;20682;-84
2023/05/07 09:52:24;;;;;;;17.15;14.52;;;22.90;1.00;;;;;;4931991;29;20202;-86
2023/05/07 09:54:56;;;;;;;17.33;15.23;;;22.00;1.00;;;;;;4936514;29;20208;-85
2023/05/07 09:57:27;;;;;;;18.33;14.38;;;21.60;1.00;;;;;;4928692;29;20656;-83
2023/05/07 10:00:02;;;;;;;15.63;13.52;;;21.90;1.00;;;;;;4942468;28;20294;-82
2023/05/07 10:02:36;;;;;;;16.35;13.45;;;23.50;1.00;;;;;;4936994;29;20839;-82
2023/05/07 10:05:04;;;;;;;15.85;14.18;;;24.90;1.00;;;;;;4930331;29;20246;-82
2023/05/07 10:07:35;;;;;;;16.45;13.80;;;24.70;1.00;;;;;;4934029;29;20652;-81
2023/05/07 10:10:07;;;;;;;14.57;13.07;;;25.30;1.00;;;;;;4921249;29;20676;-81
2023/05/07 10:12:40;;;;;;;14.02;12.60;;;24.60;1.00;;;;;;4929168;29;20672;-83
2023/05/07 10:15:14;;;;;;;15.98;13.82;;;24.20;1.00;;;;;;4944658;29;20202;-81
2023/05/07 10:17:46;;;;;;;14.27;12.88;;;23.70;1.00;;;;;;4937575;29;20196;-83
2023/05/07 10:20:14;;;;;;;14.90;13.40;;;23.30;1.00;;;;;;4926654;29;20627;-81
2023/05/07 10:22:48;;;;;;;14.73;13.23;;;23.40;1.00;;;;;;4921602;29;20724;-83
2023/05/07 10:25:28;;;;;;;14.18;12.50;;;23.50;1.00;;;;;;4928861;29;20191;-84
2023/05/07 10:28:02;;;;;;;14.70;13.25;;;23.70;1.00;;;;;;4905769;29;20302;-80
2023/05/07 10:31:05;;;;;;;15.95;11.55;;;23.90;1.00;;;;;;4922189;29;20200;-78
2023/05/07 10:33:42;;;;;;;13.55;12.15;;;24.70;1.00;;;;;;4914380;29;20199;-78
2023/05/07 10:36:10;;;;;;;14.60;13.20;;;25.10;1.00;;;;;;4919101;29;20575;-78
2023/05/07 10:38:40;;;;;;;14.82;11.60;;;25.30;1.00;;;;;;4924721;29;20291;-77
2023/05/07 10:41:08;;;;;;;13.40;12.00;;;25.60;1.00;;;;;;4913768;29;20215;-76
2023/05/07 10:43:41;;;;;;;15.05;12.38;;;26.40;1.00;;;;;;4914997;29;20204;-75
2023/05/07 10:46:19;;;;;;;13.60;12.30;;;25.70;1.00;;;;;;4933197;29;20300;-76
2023/05/07 10:49:07;;;;;;;13.48;12.18;;;26.40;1.00;;;;;;4916327;29;20219;-78
2023/05/07 10:52:15;;;;;;;12.40;11.07;;;25.50;1.00;;;;;;4912873;29;20281;-76
2023/05/07 10:55:14;;;;;;;12.70;11.40;;;25.30;1.00;;;;;;4928112;29;20196;-76
2023/05/07 10:57:47;;;;;;;12.13;10.80;;;24.90;1.00;;;;;;4934409;29;20196;-76
2023/05/07 11:00:24;;;;;;;11.27;10.07;;;25.80;1.00;;;;;;4922858;29;20206;-75
2023/05/07 11:03:07;;;;;;;12.90;11.60;;;25.80;1.00;;;;;;4909109;29;21012;-76
2023/05/07 11:05:43;;;;;;;11.98;10.38;;;24.80;1.00;;;;;;4920021;28;20199;-80
2023/05/07 11:08:23;;;;;;;13.65;10.57;;;24.60;1.00;;;;;;4917667;29;20198;-76
2023/05/07 11:11:02;;;;;;;12.40;11.00;;;24.80;1.00;;;;;;4939852;28;20230;-76
2023/05/07 11:13:42;;;;;;;10.68;8.80;;;25.20;1.00;;;;;;4929780;29;20682;-76
2023/05/07 11:16:19;;;;;;;10.88;9.88;;;25.60;1.00;;;;;;4926798;29;20226;-77
2023/05/07 11:18:52;;;;;;;10.73;8.85;;;25.10;1.00;;;;;;4942543;28;20205;-76
2023/05/07 11:21:41;;;;;;;8.43;7.60;;;25.00;1.00;;;;;;4931981;29;20258;-76
2023/05/07 11:24:42;;;;;;;8.60;7.40;;;24.90;1.00;;;;;;4929917;28;20199;-77
2023/05/07 11:27:11;;;;;;;11.60;8.40;;;24.80;1.00;;;;;;4931867;28;20630;-76
2023/05/07 11:29:38;;;;;;;10.05;9.05;;;25.20;1.00;;;;;;4924161;29;20207;-76
2023/05/07 11:32:10;;;;;;;10.57;9.48;;;25.90;1.00;;;;;;4925120;28;20616;-76
2023/05/07 11:34:44;;;;;;;9.38;8.48;;;25.60;1.00;;;;;;4927198;29;20302;-76
2023/05/07 11:37:16;;;;;;;10.98;9.65;;;24.90;1.00;;;;;;4913486;28;20198;-76
2023/05/07 11:40:07;;;;;;;8.88;7.97;;;24.60;1.00;;;;;;4940582;29;20226;-76
2023/05/07 11:42:37;;;;;;;10.20;9.10;;;25.40;1.00;;;;;;4925750;29;20267;-77
2023/05/07 11:45:09;;;;;;;11.10;10.00;;;24.60;1.00;;;;;;4931598;29;20211;-76
2023/05/07 11:47:37;;;;;;;10.07;8.82;;;25.40;1.00;;;;;;4926706;28;20206;-76
2023/05/07 11:50:11;;;;;;;12.70;8.95;;;25.20;1.00;;;;;;4934997;29;20187;-76
2023/05/07 11:52:39;;;;;;;10.35;9.32;;;24.90;1.00;;;;;;4945468;28;20200;-77
2023/05/07 11:55:07;;;;;;;6.82;6.13;;;23.40;1.00;;;;;;4918925;28;20211;-80
2023/05/07 11:57:37;;;;;;;9.75;7.97;;;23.20;1.00;;;;;;4938925;28;20558;-82
2023/05/07 12:00:05;;;;;;;8.25;7.45;;;23.20;1.00;;;;;;4929348;29;20247;-78
2023/05/07 12:02:44;;;;;;;10.10;7.53;;;23.20;1.00;;;;;;4944681;28;20209;-81
2023/05/07 12:05:12;;;;;;;10.60;8.10;;;23.50;1.00;;;;;;4927917;28;20239;-78
2023/05/07 12:07:42;;;;;;;8.35;7.50;;;23.80;1.00;;;;;;4949040;28;20190;-81
2023/05/07 12:10:13;;;;;;;10.48;9.15;;;24.60;1.00;;;;;;4928880;29;20203;-77
2023/05/07 12:12:43;;;;;;;9.23;8.27;;;24.40;1.00;;;;;;4930520;28;20294;-76
2023/05/07 12:15:11;;;;;;;9.40;8.45;;;24.00;1.00;;;;;;4917083;29;20202;-78
2023/05/07 12:17:40;;;;;;;10.07;8.85;;;23.80;1.00;;;;;;4931758;28;20294;-77
2023/05/07 12:20:08;;;;;;;9.23;8.13;;;24.40;1.00;;;;;;4932413;29;20289;-78
2023/05/07 12:22:36;;;;;;;9.90;8.57;;;24.50;1.00;;;;;;4943945;28;20231;-77
2023/05/07 12:25:04;;;;;;;9.93;8.35;;;24.00;1.00;;;;;;4921951;29;20206;-77
2023/05/07 12:27:31;;;;;;;9.32;8.40;;;23.20;1.00;;;;;;4929239;28;20262;-78
2023/05/07 12:29:59;;;;;;;9.10;8.20;;;23.20;1.00;;;;;;4932113;29;20191;-78
2023/05/07 12:32:27;;;;;;;8.93;8.00;;;23.00;1.00;;;;;;4924697;28;20861;-77
2023/05/07 12:34:54;;;;;;;10.10;9.10;;;23.30;1.00;;;;;;4931943;29;20198;-78
2023/05/07 12:37:25;;;;;;;11.30;9.55;;;23.00;1.00;;;;;;4937611;28;20878;-77
2023/05/07 12:40:11;;;;;;;9.57;8.68;;;23.00;1.00;;;;;;4932630;29;20902;-78
2023/05/07 12:42:39;;;;;;;10.32;9.00;;;23.50;1.00;;;;;;4919230;29;20209;-77
2023/05/07 12:45:10;;;;;;;8.70;7.80;;;23.60;1.00;;;;;;4942517;29;20207;-77
2023/05/07 12:47:37;;;;;;;9.73;8.77;;;23.70;1.00;;;;;;4932183;29;20207;-76
2023/05/07 12:50:08;;;;;;;10.13;7.50;;;24.00;1.00;;;;;;4935520;29;20281;-76
2023/05/07 12:52:35;;;;;;;9.18;7.93;;;24.50;1.00;;;;;;4910033;29;20246;-77
2023/05/07 12:55:06;;;;;;;8.82;7.97;;;23.90;1.00;;;;;;4935324;29;20305;-77
2023/05/07 12:57:42;;;;;;;9.05;8.15;;;23.40;1.00;;;;;;4900650;29;20635;-78